Time;durP1;ratioP1;P1;durP2;ratioP2;P2;SDS_P1;SDS_P2;PMS_P1;PMS_P2;Temp;Humidity;BMP_temperature;BMP_pressure;BME280_temperature;BME280_humidity;BME280_pressure;Samples;Min_cycle;Max_cycle;Signal;HPM_P1;HPM_P2
2022/11/21 09:25:52;;;;;;;2.90;1.00;;;7.50;99.90;;;;;;5466727;23;20054;-75
2022/11/21 09:28:18;;;;;;;4.35;1.30;;;7.60;99.90;;;;;;4983861;28;20031;-75
2022/11/21 09:39:11;;;;;;;4.72;1.40;;;7.90;99.90;;;;;;5090288;23;20054;-75
2022/11/21 09:41:50;;;;;;;5.85;1.13;;;8.00;99.90;;;;;;4946729;29;20023;-74
2022/11/21 09:44:37;;;;;;;4.47;0.93;;;8.20;99.90;;;;;;4947266;29;20033;-74
2022/11/21 09:47:10;;;;;;;3.60;0.73;;;8.40;99.90;;;;;;4979975;28;20037;-74
2022/11/21 09:49:42;;;;;;;4.38;1.10;;;8.50;99.90;;;;;;4965030;28;20039;-75
2022/11/21 09:52:13;;;;;;;4.20;0.90;;;8.50;99.90;;;;;;4983182;28;20026;-73
2022/11/21 09:54:47;;;;;;;4.53;0.90;;;8.50;99.90;;;;;;4983593;28;20308;-75
2022/11/21 09:57:16;;;;;;;5.82;0.93;;;8.50;99.90;;;;;;4983393;28;20042;-75
2022/11/21 09:59:43;;;;;;;5.10;1.08;;;8.50;99.90;;;;;;4965673;28;20093;-75
2022/11/21 10:02:21;;;;;;;5.00;1.02;;;8.60;99.90;;;;;;4966451;28;20041;-73
2022/11/21 10:04:49;;;;;;;5.00;0.88;;;8.60;99.90;;;;;;4982618;28;20081;-74
2022/11/21 10:07:18;;;;;;;5.93;1.53;;;8.60;99.90;;;;;;4983041;28;20134;-74
2022/11/21 10:09:47;;;;;;;4.47;0.82;;;8.80;99.90;;;;;;4965400;28;20050;-74
2022/11/21 10:12:36;;;;;;;5.25;0.90;;;8.90;99.90;;;;;;4965781;28;20030;-75
2022/11/21 10:15:22;;;;;;;2.72;0.80;;;9.00;99.90;;;;;;4962147;29;20046;-74
2022/11/21 10:18:05;;;;;;;4.93;0.88;;;9.00;99.90;;;;;;4981747;28;20050;-75
2022/11/21 10:20:34;;;;;;;3.75;1.10;;;9.10;99.90;;;;;;4983060;28;20023;-74
2022/11/21 10:23:23;;;;;;;5.10;1.02;;;9.30;99.90;;;;;;4982544;28;20240;-75
2022/11/21 10:25:56;;;;;;;6.60;0.95;;;9.80;99.90;;;;;;4982556;28;20022;-74
2022/11/21 10:28:38;;;;;;;6.32;1.58;;;10.10;99.90;;;;;;4982997;28;20093;-77
2022/11/21 10:31:10;;;;;;;5.95;1.13;;;10.20;99.90;;;;;;4982877;28;20042;-75
2022/11/21 10:33:39;;;;;;;3.90;0.77;;;10.20;99.90;;;;;;4982649;28;20205;-75
2022/11/21 10:36:10;;;;;;;5.63;1.42;;;10.40;99.90;;;;;;4965644;28;20026;-74
2022/11/21 10:38:39;;;;;;;2.67;0.68;;;10.70;99.90;;;;;;4982322;28;20127;-75
2022/11/21 10:41:16;;;;;;;4.65;1.05;;;11.00;99.90;;;;;;4947345;29;20035;-73
2022/11/21 10:47:01;;;;;;;6.43;0.90;;;11.20;99.90;;;;;;4963113;29;20046;-74
2022/11/21 10:49:31;;;;;;;2.95;0.60;;;11.00;99.90;;;;;;4946256;29;20034;-76
2022/11/21 10:52:15;;;;;;;4.07;0.80;;;11.20;99.90;;;;;;4959782;29;20390;-76
2022/11/21 10:55:02;;;;;;;3.75;0.57;;;11.80;99.70;;;;;;4926596;29;20038;-74
2022/11/21 10:57:32;;;;;;;7.37;1.20;;;11.80;99.80;;;;;;4959933;29;20033;-74
2022/11/21 11:00:12;;;;;;;4.57;0.93;;;12.10;99.70;;;;;;4961142;28;20233;-74
2022/11/21 11:02:42;;;;;;;3.45;0.70;;;12.80;98.90;;;;;;4943807;29;20027;-76
2022/11/21 11:05:27;;;;;;;3.03;0.60;;;13.70;96.60;;;;;;4943898;29;20031;-76
2022/11/21 11:08:13;;;;;;;5.32;1.08;;;13.60;97.10;;;;;;4943308;29;20040;-75
2022/11/21 11:10:41;;;;;;;2.50;0.70;;;13.20;95.80;;;;;;4961593;29;20031;-76
2022/11/21 11:13:33;;;;;;;4.60;0.63;;;13.20;95.70;;;;;;4963380;29;20091;-76
2022/11/21 11:16:15;;;;;;;3.90;0.80;;;13.50;95.90;;;;;;4962736;28;20494;-77
2022/11/21 11:19:15;;;;;;;4.82;0.80;;;12.50;96.10;;;;;;4962324;29;20035;-76
2022/11/21 11:21:43;;;;;;;3.85;0.90;;;12.80;97.50;;;;;;4962469;29;20110;-76
2022/11/21 11:24:09;;;;;;;;;;;13.20;95.70;;;;;;4963028;29;20078;-73
2022/11/21 11:26:47;;;;;;;2.65;0.68;;;13.50;96.10;;;;;;4945542;29;19911;-73
2022/11/21 11:29:17;;;;;;;3.78;0.60;;;13.50;94.10;;;;;;4962506;29;20035;-73
2022/11/21 11:31:50;;;;;;;3.90;0.90;;;13.40;93.30;;;;;;4962077;29;20108;-78
2022/11/21 11:34:17;;;;;;;4.00;0.80;;;13.20;94.30;;;;;;4962606;29;20031;-74
2022/11/21 11:37:11;;;;;;;3.45;0.70;;;12.60;93.90;;;;;;4962433;29;20042;-74
2022/11/21 11:40:04;;;;;;;3.35;0.70;;;12.50;94.30;;;;;;4982136;28;20069;-75
2022/11/21 11:48:56;;;;;;;3.90;0.90;;;13.70;91.50;;;;;;4981085;28;20037;-75
2022/11/21 11:51:35;;;;;;;4.18;0.88;;;13.40;91.10;;;;;;4982059;28;20061;-73
2022/11/21 11:54:17;;;;;;;3.15;0.88;;;14.10;90.70;;;;;;4981642;28;20039;-77
2022/11/21 11:56:45;;;;;;;2.65;0.60;;;14.30;90.50;;;;;;4981478;28;20297;-73
2022/11/21 11:59:19;;;;;;;3.30;0.93;;;14.10;91.20;;;;;;4981872;28;20038;-77
2022/11/21 12:02:03;;;;;;;3.58;0.80;;;14.10;90.60;;;;;;4964124;28;20031;-76
2022/11/21 12:04:42;;;;;;;5.55;0.80;;;14.00;90.20;;;;;;4948235;28;20042;-78
2022/11/21 12:07:21;;;;;;;3.55;0.70;;;15.10;87.90;;;;;;4964901;28;20081;-77
2022/11/21 12:10:12;;;;;;;3.55;0.70;;;15.40;87.00;;;;;;4981275;28;20034;-74
2022/11/21 12:12:43;;;;;;;3.15;0.70;;;15.50;87.00;;;;;;4982317;28;20049;-77
2022/11/21 12:18:24;;;;;;;2.55;0.57;;;15.90;82.30;;;;;;4985245;28;20070;-77
2022/11/21 12:20:59;;;;;;;3.47;0.70;;;15.00;84.90;;;;;;4984957;28;20043;-76
2022/11/21 12:23:43;;;;;;;2.70;0.80;;;14.70;87.00;;;;;;4982260;28;20070;-76
2022/11/21 12:26:50;;;;;;;4.97;0.80;;;14.50;87.70;;;;;;4980347;28;20327;-75
2022/11/21 12:29:22;;;;;;;4.47;0.60;;;13.80;87.90;;;;;;4967518;28;20314;-78
2022/11/21 12:31:51;;;;;;;4.15;0.70;;;13.10;90.10;;;;;;4984390;28;20422;-74
2022/11/21 12:34:22;;;;;;;3.47;0.60;;;12.70;91.00;;;;;;4967384;28;20026;-74
2022/11/21 12:37:03;;;;;;;2.20;0.40;;;12.50;91.20;;;;;;4968033;29;20396;-74
2022/11/21 12:39:53;;;;;;;2.47;0.68;;;12.20;91.40;;;;;;4965765;29;20051;-76
2022/11/21 12:42:57;;;;;;;3.40;0.70;;;12.00;91.60;;;;;;4965584;29;20031;-74
2022/11/21 12:45:32;;;;;;;3.72;0.80;;;12.10;92.00;;;;;;4886893;29;20029;-76
2022/11/21 12:54:46;;;;;;;3.45;0.55;;;13.90;90.30;;;;;;4965213;29;20037;-76
2022/11/21 12:57:20;;;;;;;2.90;0.60;;;14.60;89.60;;;;;;4965297;29;20491;-74
2022/11/21 12:59:57;;;;;;;3.20;0.80;;;15.20;87.00;;;;;;4947955;29;20054;-74
2022/11/21 13:03:01;;;;;;;4.10;0.73;;;15.20;86.50;;;;;;4965547;29;20045;-76
2022/11/21 13:05:31;;;;;;;4.22;0.70;;;15.10;86.60;;;;;;4948636;29;20321;-78
2022/11/21 13:08:04;;;;;;;3.60;0.70;;;15.00;86.00;;;;;;4965017;29;20054;-77
2022/11/21 13:10:31;;;;;;;2.30;0.57;;;14.90;87.00;;;;;;4965066;29;20035;-74
2022/11/21 13:13:24;;;;;;;3.20;0.70;;;15.10;87.30;;;;;;4965589;29;20049;-75
2022/11/21 13:15:59;;;;;;;1.77;0.50;;;15.10;87.40;;;;;;4970533;29;20059;-75
2022/11/21 13:18:32;;;;;;;4.95;0.85;;;15.40;86.80;;;;;;4973046;29;20102;-73
2022/11/21 13:20:58;;;;;;;2.03;0.60;;;15.60;84.70;;;;;;4970999;29;20112;-75
2022/11/21 13:23:40;;;;;;;2.40;0.52;;;15.10;86.40;;;;;;4970996;29;20042;-73
2022/11/21 13:26:24;;;;;;;2.38;0.45;;;14.80;87.00;;;;;;4965379;28;20042;-74
2022/11/21 13:29:05;;;;;;;2.72;0.65;;;14.90;87.80;;;;;;4947743;29;20043;-75
2022/11/21 13:31:35;;;;;;;3.67;0.80;;;15.20;85.60;;;;;;4964586;29;20113;-75
2022/11/21 13:34:04;;;;;;;2.90;0.50;;;15.20;85.50;;;;;;4964528;29;20038;-78
2022/11/21 13:36:33;;;;;;;3.63;0.85;;;15.20;85.80;;;;;;4964689;29;20205;-76
2022/11/21 13:38:59;;;;;;;1.88;0.57;;;14.70;86.40;;;;;;4964748;29;20238;-76
2022/11/21 13:44:30;;;;;;;4.18;0.93;;;14.20;87.70;;;;;;4964547;29;20046;-74
2022/11/21 13:47:24;;;;;;;3.03;0.75;;;14.30;88.50;;;;;;4947050;29;20062;-74
2022/11/21 13:50:02;;;;;;;5.68;1.70;;;14.30;87.70;;;;;;4947295;29;20145;-74
2022/11/21 13:53:03;;;;;;;4.10;1.02;;;13.90;87.80;;;;;;4964119;29;20320;-73
2022/11/21 13:55:47;;;;;;;3.65;0.80;;;13.80;89.70;;;;;;4945316;29;20071;-73
2022/11/21 13:58:48;;;;;;;3.95;0.85;;;13.30;90.10;;;;;;4943930;29;20035;-74
2022/11/21 14:01:36;;;;;;;4.75;0.73;;;12.80;90.20;;;;;;4956887;29;20233;-74
2022/11/21 14:04:05;;;;;;;;;;;12.70;91.10;;;;;;4947089;29;20332;-74
2022/11/21 14:06:42;;;;;;;2.60;0.70;;;12.50;91.80;;;;;;4963656;29;19902;-76
2022/11/21 14:09:22;;;;;;;3.05;0.80;;;12.40;92.10;;;;;;4942689;29;20348;-77
2022/11/21 14:12:17;;;;;;;2.42;0.70;;;12.20;92.30;;;;;;4944035;29;20036;-77
2022/11/21 14:15:33;;;;;;;2.97;0.60;;;12.20;92.50;;;;;;4946747;29;20030;-74
2022/11/21 14:18:00;;;;;;;4.63;0.90;;;12.10;92.70;;;;;;4914286;29;20063;-76
2022/11/21 14:20:28;;;;;;;5.15;1.02;;;12.10;92.30;;;;;;4949684;29;20015;-75
2022/11/21 14:22:56;;;;;;;3.35;0.90;;;12.10;92.20;;;;;;4963155;29;20027;-76
2022/11/21 14:25:35;;;;;;;4.43;0.82;;;11.90;92.80;;;;;;4963460;29;20123;-73
2022/11/21 14:28:02;;;;;;;;;;;11.80;90.90;;;;;;4962089;29;20099;-75
2022/11/21 14:30:39;;;;;;;3.08;0.68;;;11.70;91.20;;;;;;4930345;29;19912;-77
2022/11/21 14:33:28;;;;;;;5.55;1.00;;;11.60;90.60;;;;;;4926636;29;20225;-76
2022/11/21 14:36:01;;;;;;;4.72;1.42;;;11.30;90.80;;;;;;4956931;28;20236;-75
2022/11/21 14:38:29;;;;;;;7.90;1.35;;;11.10;91.40;;;;;;4952817;29;20388;-74
2022/11/21 14:41:23;;;;;;;10.10;2.70;;;10.90;91.50;;;;;;4963101;29;20023;-75
2022/11/21 14:44:02;;;;;;;4.80;1.90;;;10.80;91.70;;;;;;4962691;29;20054;-75
2022/11/21 14:46:35;;;;;;;5.90;1.17;;;10.60;92.30;;;;;;4963164;29;20054;-75
2022/11/21 14:49:17;;;;;;;4.93;1.10;;;10.50;92.90;;;;;;4962351;29;20131;-74
2022/11/21 14:52:03;;;;;;;3.90;0.90;;;10.50;93.30;;;;;;4963324;29;20074;-77
2022/11/21 14:54:49;;;;;;;6.88;1.33;;;10.40;93.80;;;;;;4962953;29;20051;-76
2022/11/21 14:57:22;;;;;;;5.15;1.10;;;10.20;94.10;;;;;;4963443;29;20031;-77
2022/11/21 14:59:49;;;;;;;4.35;1.23;;;10.10;94.20;;;;;;4962843;29;20028;-75
2022/11/21 15:02:24;;;;;;;6.55;1.75;;;10.00;94.50;;;;;;4945868;29;20034;-75
2022/11/21 15:04:52;;;;;;;6.75;1.92;;;9.90;95.00;;;;;;4962455;29;20025;-72
2022/11/21 15:07:24;;;;;;;4.32;1.23;;;9.80;95.40;;;;;;4962674;29;20031;-75
2022/11/21 15:09:50;;;;;;;6.57;1.55;;;9.80;95.60;;;;;;4945638;29;20099;-75
2022/11/21 15:12:19;;;;;;;4.00;1.13;;;9.70;95.80;;;;;;4945840;29;20313;-75
2022/11/21 15:14:51;;;;;;;4.70;1.10;;;9.60;96.60;;;;;;4962563;29;20066;-75
2022/11/21 15:17:21;;;;;;;6.60;1.38;;;9.40;96.40;;;;;;4963091;29;20039;-75
2022/11/21 15:20:10;;;;;;;10.32;2.35;;;9.30;96.20;;;;;;4963038;29;20041;-74
2022/11/21 15:22:38;;;;;;;11.23;3.17;;;9.30;97.10;;;;;;4945800;29;20073;-76
2022/11/21 15:25:26;;;;;;;9.40;2.65;;;9.20;97.20;;;;;;4946222;29;20034;-76
2022/11/21 15:28:16;;;;;;;6.95;1.90;;;9.00;97.40;;;;;;4962065;29;20051;-74
2022/11/21 15:30:42;;;;;;;5.85;2.00;;;8.90;97.70;;;;;;4946113;29;20050;-77
2022/11/21 15:33:19;;;;;;;10.07;3.58;;;8.80;97.90;;;;;;4945359;29;20058;-75
2022/11/21 15:35:51;;;;;;;7.28;2.92;;;8.70;98.20;;;;;;4954732;29;20234;-76
2022/11/21 15:38:23;;;;;;;10.98;3.20;;;8.60;98.60;;;;;;4971837;28;20109;-77
2022/11/21 15:41:21;;;;;;;10.00;3.25;;;8.60;98.50;;;;;;4982197;28;20034;-75
2022/11/21 15:43:48;;;;;;;;;;;8.40;98.90;;;;;;4982523;28;20037;-75
2022/11/21 15:46:21;;;;;;;9.38;2.00;;;8.30;99.30;;;;;;4970269;28;19906;-73
2022/11/21 15:48:55;;;;;;;5.63;2.03;;;8.30;99.30;;;;;;4964440;28;20073;-74
2022/11/21 15:51:28;;;;;;;5.75;1.67;;;8.20;99.40;;;;;;4966644;29;20031;-74
2022/11/21 15:53:54;;;;;;;8.73;2.00;;;8.20;99.00;;;;;;4965888;28;20027;-75
2022/11/21 15:56:21;;;;;;;7.40;1.90;;;8.10;99.30;;;;;;4949694;29;20143;-75
2022/11/21 15:58:47;;;;;;;14.80;7.15;;;8.00;99.80;;;;;;4949507;29;20054;-76
2022/11/21 16:01:22;;;;;;;18.85;8.90;;;7.80;99.90;;;;;;4945220;29;20121;-76
2022/11/21 16:03:50;;;;;;;8.70;3.33;;;7.60;99.90;;;;;;4957614;29;20023;-75
2022/11/21 16:06:16;;;;;;;10.10;2.80;;;7.60;99.90;;;;;;4963770;29;20065;-76
2022/11/21 16:08:42;;;;;;;7.95;2.58;;;7.50;99.90;;;;;;4956819;29;20034;-73
2022/11/21 16:11:27;;;;;;;5.93;2.20;;;7.40;99.90;;;;;;4954903;29;20027;-74
2022/11/21 16:13:55;;;;;;;7.03;1.88;;;7.30;99.90;;;;;;4957141;29;20085;-76
2022/11/21 16:16:23;;;;;;;9.23;3.00;;;7.30;99.90;;;;;;4952885;29;20175;-76
2022/11/21 16:18:49;;;;;;;8.98;3.58;;;7.20;99.90;;;;;;4955975;29;20225;-76
2022/11/21 16:21:15;;;;;;;9.90;4.03;;;7.20;99.90;;;;;;4964572;29;20264;-75
2022/11/21 16:23:42;;;;;;;9.68;3.83;;;7.10;99.90;;;;;;4965961;28;20015;-76
2022/11/21 16:26:09;;;;;;;13.90;3.85;;;7.00;99.90;;;;;;4965520;29;20023;-74
2022/11/21 16:28:35;;;;;;;8.77;4.40;;;7.00;99.90;;;;;;4965333;29;20317;-72
2022/11/21 16:31:01;;;;;;;9.52;3.97;;;6.90;99.90;;;;;;4947990;29;20035;-72
2022/11/21 16:33:28;;;;;;;10.50;3.40;;;6.80;99.90;;;;;;4966240;29;20242;-76
2022/11/21 16:35:55;;;;;;;13.73;5.07;;;6.90;99.90;;;;;;4969710;28;20035;-76
2022/11/21 16:38:28;;;;;;;11.20;4.97;;;6.90;99.90;;;;;;4951880;29;20325;-74
2022/11/21 16:41:03;;;;;;;12.15;4.68;;;6.80;99.90;;;;;;4966083;28;20106;-75
2022/11/21 16:43:29;;;;;;;11.23;4.13;;;6.70;99.90;;;;;;4966415;28;20039;-75
2022/11/21 16:46:04;;;;;;;10.10;3.55;;;6.60;99.90;;;;;;4964871;28;20035;-73
2022/11/21 16:48:30;;;;;;;10.20;4.00;;;6.60;99.90;;;;;;4964199;29;20139;-75
2022/11/21 16:51:18;;;;;;;9.48;4.00;;;6.50;99.90;;;;;;4965300;29;20051;-75
2022/11/21 16:53:45;;;;;;;10.75;4.15;;;6.50;99.90;;;;;;4965651;28;20034;-78
2022/11/21 16:56:14;;;;;;;8.63;4.35;;;6.50;99.90;;;;;;4965547;28;20027;-79
2022/11/21 16:58:41;;;;;;;12.20;4.78;;;6.40;99.90;;;;;;4966461;28;20340;-76
2022/11/21 17:01:16;;;;;;;15.93;5.18;;;6.30;99.90;;;;;;4964731;28;20047;-74
2022/11/21 17:03:43;;;;;;;25.60;13.07;;;6.30;99.90;;;;;;4966008;28;20039;-76
2022/11/21 17:06:11;;;;;;;18.45;6.95;;;6.20;99.90;;;;;;4965314;29;20047;-77
2022/11/21 17:08:39;;;;;;;12.73;4.50;;;6.20;99.90;;;;;;4965432;28;20369;-77
2022/11/21 17:11:15;;;;;;;14.10;3.00;;;6.20;99.90;;;;;;4964233;29;20086;-76
2022/11/21 17:13:42;;;;;;;11.57;3.53;;;6.20;99.90;;;;;;4965483;29;20035;-77
2022/11/21 17:16:09;;;;;;;10.38;3.58;;;6.20;99.90;;;;;;4949533;29;20043;-76
2022/11/21 17:18:35;;;;;;;12.98;3.03;;;6.20;99.90;;;;;;4946271;29;20341;-75
2022/11/21 17:21:08;;;;;;;9.00;2.80;;;6.20;99.90;;;;;;4945939;29;20043;-76
2022/11/21 17:23:35;;;;;;;10.10;3.30;;;6.30;99.90;;;;;;4945220;29;20043;-75
2022/11/21 17:26:06;;;;;;;9.33;2.70;;;6.20;99.90;;;;;;4946015;29;20221;-75
2022/11/21 17:28:33;;;;;;;8.40;2.80;;;6.20;99.90;;;;;;4945079;29;20067;-75
2022/11/21 17:30:59;;;;;;;7.88;2.80;;;6.10;99.90;;;;;;4928858;29;20401;-77
2022/11/21 17:33:25;;;;;;;9.10;3.13;;;6.10;99.90;;;;;;4945955;29;20036;-76
2022/11/21 17:35:51;;;;;;;8.70;3.42;;;6.00;99.90;;;;;;4959064;29;20031;-75
2022/11/21 17:38:17;;;;;;;8.18;2.92;;;6.00;99.90;;;;;;4947570;29;20063;-75
2022/11/21 17:40:44;;;;;;;6.13;2.42;;;6.00;99.90;;;;;;4965363;29;20053;-74
2022/11/21 17:43:10;;;;;;;7.82;2.78;;;6.10;99.90;;;;;;4966146;29;20031;-76
2022/11/21 17:45:36;;;;;;;9.25;2.88;;;6.20;99.90;;;;;;4966458;29;20043;-75
2022/11/21 17:48:01;;;;;;;5.63;2.30;;;6.20;99.90;;;;;;4964882;29;20236;-76
2022/11/21 17:50:30;;;;;;;10.18;5.15;;;6.10;99.90;;;;;;4965031;29;20055;-75
2022/11/21 17:52:56;;;;;;;8.80;3.88;;;6.10;99.90;;;;;;4969609;29;20027;-73
2022/11/21 17:55:22;;;;;;;7.30;2.72;;;6.10;99.90;;;;;;4975842;28;20103;-74
2022/11/21 17:57:51;;;;;;;10.85;2.67;;;6.10;99.90;;;;;;4975076;29;20029;-74
2022/11/21 18:00:46;;;;;;;6.10;2.38;;;6.20;99.90;;;;;;4973355;28;20025;-78
2022/11/21 18:03:18;;;;;;;7.20;2.30;;;6.20;99.90;;;;;;4948260;29;20070;-74
2022/11/21 18:05:44;;;;;;;6.68;2.38;;;6.20;99.90;;;;;;4947396;29;20213;-77
2022/11/21 18:08:09;;;;;;;8.30;2.80;;;6.20;99.90;;;;;;4962399;29;20034;-72
2022/11/21 18:10:35;;;;;;;7.35;3.05;;;6.30;99.90;;;;;;4964005;28;20050;-74
2022/11/21 18:13:01;;;;;;;8.93;2.97;;;6.30;99.90;;;;;;4963364;29;20050;-75
2022/11/21 18:15:27;;;;;;;12.45;2.88;;;6.30;99.90;;;;;;4963739;29;20333;-77
2022/11/21 18:17:52;;;;;;;9.55;2.83;;;6.30;99.90;;;;;;4964103;29;20242;-72
2022/11/21 18:20:18;;;;;;;8.60;2.95;;;6.40;99.90;;;;;;4963116;29;20054;-74
2022/11/21 18:22:48;;;;;;;11.15;3.53;;;6.30;99.90;;;;;;4963466;29;20027;-77
2022/11/21 18:25:13;;;;;;;8.65;3.90;;;6.30;99.90;;;;;;4962403;29;20035;-76
2022/11/21 18:27:39;;;;;;;11.13;5.35;;;6.30;99.90;;;;;;4962540;29;20062;-77
2022/11/21 18:30:06;;;;;;;8.43;4.53;;;6.30;99.90;;;;;;4946190;29;20038;-78
2022/11/21 18:32:34;;;;;;;8.95;3.83;;;6.40;99.90;;;;;;4947675;29;20102;-79
2022/11/21 18:35:00;;;;;;;8.77;3.27;;;6.40;99.90;;;;;;4965254;28;20035;-78
2022/11/21 18:37:26;;;;;;;8.57;3.72;;;6.40;99.90;;;;;;4965647;28;20469;-75
2022/11/21 18:39:51;;;;;;;9.88;3.45;;;6.40;99.90;;;;;;4981360;28;20065;-76
2022/11/21 18:42:17;;;;;;;10.32;3.35;;;6.40;99.90;;;;;;4982220;28;20037;-77
2022/11/21 18:44:42;;;;;;;10.23;3.35;;;6.40;99.90;;;;;;4983008;28;20035;-75
2022/11/21 18:47:08;;;;;;;9.98;5.18;;;6.30;99.90;;;;;;4961635;29;20270;-76
2022/11/21 18:49:34;;;;;;;13.85;7.40;;;6.30;99.90;;;;;;4963318;29;20035;-77
2022/11/21 18:52:00;;;;;;;11.18;6.15;;;6.40;99.90;;;;;;4963390;29;20035;-75
2022/11/21 18:54:28;;;;;;;9.05;3.47;;;6.40;99.90;;;;;;4975363;28;20030;-75
2022/11/21 18:56:55;;;;;;;10.63;3.13;;;6.40;99.90;;;;;;4982794;28;20038;-74
2022/11/21 18:59:24;;;;;;;10.18;3.35;;;6.40;99.90;;;;;;4981899;28;20027;-78
2022/11/21 19:01:58;;;;;;;11.65;3.30;;;6.40;99.90;;;;;;4982275;28;20043;-74
2022/11/21 19:04:24;;;;;;;8.82;3.13;;;6.40;99.90;;;;;;4981787;28;20090;-74
2022/11/21 19:06:50;;;;;;;7.72;3.00;;;6.40;99.90;;;;;;4982600;28;20039;-77
2022/11/21 19:09:17;;;;;;;8.43;2.92;;;6.40;99.90;;;;;;4981900;28;20039;-77
2022/11/21 19:11:43;;;;;;;9.02;3.00;;;6.40;99.90;;;;;;4982191;28;20038;-75
2022/11/21 19:14:09;;;;;;;9.02;2.90;;;6.50;99.90;;;;;;4981558;28;20101;-74
2022/11/21 19:16:34;;;;;;;6.68;3.10;;;6.40;99.90;;;;;;4981983;28;20031;-76
2022/11/21 19:19:03;;;;;;;6.47;2.40;;;6.40;99.90;;;;;;4982249;28;20046;-74
2022/11/21 19:21:29;;;;;;;11.70;3.00;;;6.50;99.90;;;;;;4982236;28;20130;-76
2022/11/21 19:23:55;;;;;;;5.53;2.63;;;6.40;99.90;;;;;;4982320;28;20022;-76
2022/11/21 19:26:21;;;;;;;35.72;22.25;;;6.40;99.90;;;;;;4982014;28;20034;-75
2022/11/21 19:28:47;;;;;;;18.95;10.48;;;6.50;99.90;;;;;;4982760;28;20363;-78
2022/11/21 19:31:15;;;;;;;10.23;4.40;;;6.50;99.90;;;;;;4964639;28;20240;-75
2022/11/21 19:33:41;;;;;;;8.52;3.75;;;6.50;99.90;;;;;;4982364;28;20026;-75
2022/11/21 19:36:12;;;;;;;8.98;3.30;;;6.50;99.90;;;;;;4981512;28;20392;-77
2022/11/21 19:38:38;;;;;;;9.23;3.70;;;6.40;99.90;;;;;;4961382;29;20051;-75
2022/11/21 19:41:12;;;;;;;8.35;3.70;;;6.50;99.90;;;;;;4962903;29;20035;-76
2022/11/21 19:43:46;;;;;;;8.18;2.97;;;6.50;99.90;;;;;;4962238;29;20102;-76
2022/11/21 19:46:15;;;;;;;8.63;3.35;;;6.50;99.90;;;;;;4962360;29;20035;-76
2022/11/21 19:48:46;;;;;;;7.35;3.35;;;6.50;99.90;;;;;;4963296;29;20046;-77
2022/11/21 19:51:12;;;;;;;7.90;3.45;;;6.60;99.90;;;;;;4963675;29;20046;-77
2022/11/21 19:53:38;;;;;;;8.57;3.53;;;6.60;99.90;;;;;;4948437;29;20031;-75
2022/11/21 19:56:17;;;;;;;8.52;3.35;;;6.50;99.90;;;;;;4946657;29;20277;-77
2022/11/21 19:58:47;;;;;;;8.43;3.17;;;6.60;99.90;;;;;;4944890;29;20031;-76
2022/11/21 20:01:24;;;;;;;8.30;3.25;;;6.60;99.90;;;;;;4953756;29;20019;-76
2022/11/21 20:03:53;;;;;;;11.75;3.65;;;6.60;99.90;;;;;;4962522;29;20317;-77
2022/11/21 20:06:22;;;;;;;8.90;2.92;;;6.60;99.90;;;;;;4962368;29;20023;-78
2022/11/21 20:09:01;;;;;;;7.45;3.28;;;6.60;99.90;;;;;;4962511;29;20063;-75
2022/11/21 20:11:30;;;;;;;7.65;3.03;;;6.60;99.90;;;;;;4962453;29;20035;-76
2022/11/21 20:13:59;;;;;;;10.18;4.35;;;6.60;99.90;;;;;;4963250;29;20020;-76
2022/11/21 20:16:33;;;;;;;8.30;3.13;;;6.60;99.90;;;;;;4945292;29;20278;-75
2022/11/21 20:19:08;;;;;;;8.75;3.85;;;6.60;99.90;;;;;;4958727;29;20058;-79
2022/11/21 20:21:35;;;;;;;8.75;3.95;;;6.60;99.90;;;;;;4962178;29;20042;-76
2022/11/21 20:24:01;;;;;;;8.95;4.07;;;6.60;99.90;;;;;;4929859;29;20216;-78
2022/11/21 20:26:28;;;;;;;11.00;3.92;;;6.60;99.90;;;;;;4945417;29;20063;-77
2022/11/21 20:28:54;;;;;;;16.45;5.60;;;6.60;99.90;;;;;;4945140;29;20054;-79
2022/11/21 20:31:22;;;;;;;8.27;4.13;;;6.60;99.90;;;;;;4962018;29;20031;-76
2022/11/21 20:33:49;;;;;;;;;;;6.60;99.90;;;;;;4962967;28;20035;-75
2022/11/21 20:36:24;;;;;;;10.57;4.28;;;6.60;99.90;;;;;;4964503;29;19965;-77
2022/11/21 20:39:02;;;;;;;9.30;4.00;;;6.70;99.90;;;;;;4961975;28;20057;-76
2022/11/21 20:41:31;;;;;;;13.32;6.65;;;6.60;99.90;;;;;;4986206;28;20507;-78
2022/11/21 20:44:06;;;;;;;15.45;7.68;;;6.70;99.90;;;;;;4987163;28;20168;-80
2022/11/21 20:46:33;;;;;;;12.45;5.68;;;6.60;99.90;;;;;;4984777;28;20039;-75
2022/11/21 20:49:05;;;;;;;12.02;4.95;;;6.70;99.90;;;;;;4984771;28;20034;-79
2022/11/21 20:51:30;;;;;;;13.25;5.43;;;6.60;99.90;;;;;;4985823;28;20061;-77
2022/11/21 20:53:56;;;;;;;10.30;5.13;;;6.60;99.90;;;;;;4985724;28;20058;-77
2022/11/21 20:56:22;;;;;;;11.43;5.38;;;6.60;99.90;;;;;;4966265;28;20081;-78
2022/11/21 20:58:49;;;;;;;20.40;11.05;;;6.70;99.90;;;;;;4976403;28;20406;-76
2022/11/21 21:01:17;;;;;;;20.48;11.18;;;6.70;99.90;;;;;;4967233;28;20045;-77
2022/11/21 21:03:44;;;;;;;18.17;9.77;;;6.70;99.90;;;;;;4969350;28;20022;-76
2022/11/21 21:06:12;;;;;;;14.35;7.80;;;6.80;99.90;;;;;;4966965;28;20027;-76
2022/11/21 21:08:38;;;;;;;16.60;7.22;;;6.80;99.90;;;;;;4969064;28;20062;-78
2022/11/21 21:11:14;;;;;;;18.27;7.82;;;6.80;99.90;;;;;;4959137;28;20042;-78
2022/11/21 21:13:42;;;;;;;15.23;6.88;;;6.80;99.90;;;;;;4967117;28;20025;-77
2022/11/21 21:16:18;;;;;;;15.38;7.68;;;6.70;99.90;;;;;;4967495;28;20023;-78
2022/11/21 21:18:45;;;;;;;11.43;6.20;;;6.70;99.90;;;;;;4967506;28;20328;-76
2022/11/21 21:21:21;;;;;;;17.90;6.50;;;6.80;99.90;;;;;;4984629;28;20249;-76
2022/11/21 21:24:03;;;;;;;12.82;6.95;;;6.80;99.90;;;;;;4967644;28;20076;-76
2022/11/21 21:26:31;;;;;;;16.40;7.03;;;6.80;99.90;;;;;;4966974;28;20378;-77
2022/11/21 21:28:59;;;;;;;13.50;6.35;;;6.80;99.90;;;;;;4966937;28;20062;-77
2022/11/21 21:31:28;;;;;;;13.73;5.87;;;6.80;99.90;;;;;;4983877;28;20228;-77
2022/11/21 21:33:56;;;;;;;11.82;5.47;;;6.80;99.90;;;;;;4967168;28;20019;-76
2022/11/21 21:36:23;;;;;;;23.92;13.50;;;6.90;99.90;;;;;;4984059;28;20031;-77
2022/11/21 21:38:55;;;;;;;20.87;10.40;;;6.80;99.90;;;;;;4984033;28;20046;-76
2022/11/21 21:41:31;;;;;;;12.90;6.93;;;6.80;99.90;;;;;;4983669;28;20035;-77
2022/11/21 21:43:58;;;;;;;12.35;5.25;;;6.90;99.90;;;;;;4966481;28;20065;-78
2022/11/21 21:46:25;;;;;;;10.27;5.22;;;6.90;99.90;;;;;;4983343;28;20030;-79
2022/11/21 21:48:58;;;;;;;9.32;4.40;;;6.90;99.90;;;;;;4966661;28;20039;-76
2022/11/21 21:51:26;;;;;;;9.93;4.38;;;6.90;99.90;;;;;;4966144;28;20039;-78
2022/11/21 21:53:56;;;;;;;11.13;4.45;;;6.90;99.90;;;;;;4983847;28;20030;-76
2022/11/21 21:56:23;;;;;;;10.13;4.43;;;6.90;99.90;;;;;;4966570;28;20035;-78
2022/11/21 21:58:50;;;;;;;8.70;4.10;;;6.90;99.90;;;;;;4966606;28;20049;-77
2022/11/21 22:01:25;;;;;;;10.63;3.70;;;6.90;99.90;;;;;;4950246;28;20027;-76
2022/11/21 22:03:55;;;;;;;6.97;3.70;;;7.00;99.90;;;;;;4966206;28;20122;-76
2022/11/21 22:06:21;;;;;;;10.23;4.18;;;7.00;99.90;;;;;;4966079;28;20043;-78
2022/11/21 22:08:54;;;;;;;16.60;5.60;;;7.00;99.90;;;;;;4983689;28;20037;-77
2022/11/21 22:11:25;;;;;;;12.18;5.75;;;7.00;99.90;;;;;;4950312;28;20053;-76
2022/11/21 22:13:59;;;;;;;15.27;7.32;;;7.00;99.90;;;;;;4984550;28;20027;-74
2022/11/21 22:16:26;;;;;;;13.07;5.97;;;7.00;99.90;;;;;;4969912;28;20045;-75
2022/11/21 22:18:52;;;;;;;11.95;5.22;;;7.00;99.90;;;;;;4988158;28;20023;-77
2022/11/21 22:21:20;;;;;;;11.75;5.07;;;7.00;99.90;;;;;;4990734;28;20035;-76
2022/11/21 22:23:46;;;;;;;13.57;6.00;;;7.00;99.90;;;;;;4956233;28;20027;-78
2022/11/21 22:26:13;;;;;;;11.57;5.63;;;7.10;99.90;;;;;;4971145;28;20102;-78
2022/11/21 22:28:41;;;;;;;14.45;6.00;;;7.10;99.90;;;;;;4956772;28;20082;-77
2022/11/21 22:31:08;;;;;;;12.25;6.05;;;7.10;99.90;;;;;;4989987;28;20034;-75
2022/11/21 22:33:35;;;;;;;14.55;5.40;;;7.10;99.90;;;;;;4972296;28;20045;-76
2022/11/21 22:36:03;;;;;;;12.13;5.65;;;7.10;99.90;;;;;;4966198;28;20026;-76
2022/11/21 22:38:29;;;;;;;11.00;4.72;;;7.20;99.90;;;;;;4945724;29;20101;-78
2022/11/21 22:41:22;;;;;;;8.38;4.22;;;7.20;99.90;;;;;;4963733;28;20034;-78
2022/11/21 22:43:50;;;;;;;11.93;5.35;;;7.20;99.90;;;;;;4962111;28;20058;-77
2022/11/21 22:46:16;;;;;;;9.90;4.30;;;7.20;99.90;;;;;;4950253;29;20043;-78
2022/11/21 22:48:42;;;;;;;10.00;4.22;;;7.30;99.90;;;;;;4927465;29;20110;-77
2022/11/21 22:51:10;;;;;;;5.80;2.97;;;7.30;99.90;;;;;;4944290;29;20040;-77
2022/11/21 22:53:40;;;;;;;8.65;2.20;;;7.30;99.90;;;;;;4932480;29;20038;-76
2022/11/21 22:56:08;;;;;;;6.13;2.05;;;7.30;99.90;;;;;;4963262;29;20023;-75
2022/11/21 22:58:35;;;;;;;;;;;7.30;99.90;;;;;;4945798;29;20027;-76
2022/11/21 23:01:22;;;;;;;6.65;1.92;;;7.30;99.90;;;;;;4945751;29;19910;-76
2022/11/21 23:04:08;;;;;;;5.43;2.10;;;7.30;99.90;;;;;;4930399;29;20113;-77
2022/11/21 23:06:33;;;;;;;7.97;2.20;;;7.30;99.90;;;;;;4961199;29;20044;-77
2022/11/21 23:08:59;;;;;;;5.68;2.90;;;7.30;99.90;;;;;;4963351;29;20027;-77
2022/11/21 23:11:30;;;;;;;6.63;1.83;;;7.30;99.90;;;;;;4946153;29;20031;-76
2022/11/21 23:13:56;;;;;;;4.93;1.90;;;7.30;99.90;;;;;;4963113;29;20079;-75
2022/11/21 23:16:23;;;;;;;8.35;2.03;;;7.20;99.90;;;;;;4962551;29;20105;-75